Time;durP1;ratioP1;P1;durP2;ratioP2;P2;SDS_P1;SDS_P2;PMS_P1;PMS_P2;Temp;Humidity;BMP_temperature;BMP_pressure;BME280_temperature;BME280_humidity;BME280_pressure;Samples;Min_cycle;Max_cycle;Signal;HPM_P1;HPM_P2
2022/07/15 00:02:09;;;;;;;10.45;2.70;;;;;;;14.97;64.50;102186.53;4752352;30;20423;-75
2022/07/15 00:04:36;;;;;;;13.15;3.20;;;;;;;14.93;65.80;102190.16;4768246;30;20030;-75
2022/07/15 00:07:03;;;;;;;11.45;2.70;;;;;;;14.91;66.23;102184.84;4751976;30;20078;-75
2022/07/15 00:12:13;;;;;;;14.10;3.00;;;;;;;14.83;65.93;102184.09;4768330;30;20044;-75
2022/07/15 00:14:39;;;;;;;11.52;2.80;;;;;;;14.82;65.89;102187.69;4765288;30;20404;-75
2022/07/15 00:17:06;;;;;;;10.23;2.63;;;;;;;14.79;66.61;102187.75;4737683;30;20044;-75
2022/07/15 00:19:33;;;;;;;14.43;3.17;;;;;;;14.74;66.53;102186.94;4768204;30;20139;-76
2022/07/15 00:21:59;;;;;;;13.10;3.15;;;;;;;14.74;67.06;102193.16;4752241;30;20048;-75
2022/07/15 00:24:24;;;;;;;10.55;2.80;;;;;;;14.72;67.01;102191.44;4768060;30;20039;-75
2022/07/15 00:26:50;;;;;;;8.55;2.53;;;;;;;14.70;66.28;102188.78;4752039;30;20044;-76
2022/07/15 00:29:15;;;;;;;13.50;2.88;;;;;;;14.68;66.66;102192.38;4752381;30;20039;-75
2022/07/15 00:31:41;;;;;;;11.90;3.35;;;;;;;14.65;67.51;102185.31;4752023;30;20115;-75
2022/07/15 00:34:07;;;;;;;7.63;2.58;;;;;;;14.65;66.59;102182.66;4751888;30;20528;-75
2022/07/15 00:36:32;;;;;;;8.80;3.00;;;;;;;14.61;67.64;102178.25;4768103;30;20050;-75
2022/07/15 00:38:58;;;;;;;13.00;2.97;;;;;;;14.54;68.16;102174.84;4768029;30;21158;-75
2022/07/15 00:41:23;;;;;;;16.25;3.33;;;;;;;14.46;68.15;102166.03;4751905;30;20058;-76
2022/07/15 00:43:49;;;;;;;8.27;2.80;;;;;;;14.42;67.75;102175.00;4719641;30;20245;-75
2022/07/15 00:46:17;;;;;;;8.48;2.60;;;;;;;14.40;68.02;102176.81;4762811;30;20046;-75
2022/07/15 00:48:43;;;;;;;14.95;2.67;;;;;;;14.38;67.89;102171.50;4751750;30;20059;-76
2022/07/15 00:51:09;;;;;;;18.73;3.17;;;;;;;14.37;68.68;102169.75;4767999;30;20090;-76
2022/07/15 00:53:37;;;;;;;13.23;2.47;;;;;;;14.30;69.66;102176.09;4764159;30;20130;-75
2022/07/15 00:56:06;;;;;;;10.35;2.38;;;;;;;14.25;69.53;102175.28;4767903;30;20028;-75
2022/07/15 00:58:36;;;;;;;13.10;3.35;;;;;;;14.19;69.41;102178.94;4752094;30;20055;-75
2022/07/15 01:01:03;;;;;;;10.73;2.75;;;;;;;14.14;69.34;102179.88;4767717;30;20143;-75
2022/07/15 01:03:31;;;;;;;8.27;2.75;;;;;;;14.11;70.03;102174.63;4751274;30;20044;-75
2022/07/15 01:05:56;;;;;;;9.48;2.40;;;;;;;14.09;69.83;102174.63;4750315;30;20059;-75
2022/07/15 01:08:22;;;;;;;8.95;2.80;;;;;;;14.05;70.26;102172.06;4751487;30;20083;-75
2022/07/15 01:10:49;;;;;;;7.78;2.63;;;;;;;13.98;69.78;102171.25;4767961;30;20149;-75
2022/07/15 01:13:16;;;;;;;9.73;2.50;;;;;;;14.00;69.21;102172.13;4751500;30;20035;-75
2022/07/15 01:15:42;;;;;;;9.60;3.08;;;;;;;14.00;69.17;102166.78;4736962;30;20139;-75
2022/07/15 01:18:07;;;;;;;14.10;2.70;;;;;;;13.97;69.64;102169.47;4737081;30;20122;-75
2022/07/15 01:20:42;;;;;;;10.57;3.08;;;;;;;13.96;70.19;102168.59;4754636;30;20066;-75
2022/07/15 01:23:07;;;;;;;8.82;2.17;;;;;;;13.93;69.79;102167.78;4754837;30;20553;-76
2022/07/15 01:25:41;;;;;;;11.70;2.20;;;;;;;13.86;70.40;102171.44;4740877;30;20562;-75
2022/07/15 01:28:11;;;;;;;8.82;2.65;;;;;;;13.85;70.05;102169.69;4740669;30;20519;-75
2022/07/15 01:30:37;;;;;;;10.52;2.50;;;;;;;13.85;69.68;102175.00;4745052;30;20380;-75
2022/07/15 01:33:04;;;;;;;9.73;2.78;;;;;;;13.81;70.98;102182.16;4753538;30;20080;-75
2022/07/15 01:35:29;;;;;;;11.60;2.95;;;;;;;13.76;70.46;102181.34;4754654;30;20067;-75
2022/07/15 01:37:55;;;;;;;9.82;2.90;;;;;;;13.75;70.60;102190.22;4754678;30;20040;-75
2022/07/15 01:40:21;;;;;;;10.43;3.00;;;;;;;13.70;71.39;102184.97;4754384;30;20366;-75
2022/07/15 01:42:47;;;;;;;8.00;2.40;;;;;;;13.69;70.86;102184.97;4737101;30;20120;-75
2022/07/15 01:45:15;;;;;;;13.70;2.92;;;;;;;13.66;70.98;102193.00;4754030;30;20195;-76
2022/07/15 01:47:46;;;;;;;13.40;2.97;;;;;;;13.62;71.22;102189.50;4754527;30;20457;-75
2022/07/15 01:50:16;;;;;;;12.70;2.78;;;;;;;13.65;70.90;102196.56;4754059;30;20528;-75
2022/07/15 01:52:56;;;;;;;12.68;3.05;;;;;;;13.62;71.31;102191.28;4770731;30;20354;-75
2022/07/15 01:55:23;;;;;;;8.63;3.25;;;;;;;13.54;71.85;102186.94;4754193;30;20146;-76
2022/07/15 01:57:49;;;;;;;8.52;2.95;;;;;;;13.51;71.91;102192.28;4754340;30;20514;-76
2022/07/15 02:00:17;;;;;;;9.27;3.33;;;;;;;13.49;71.95;102186.09;4754145;30;20218;-76
2022/07/15 02:02:43;;;;;;;7.68;2.88;;;;;;;13.49;71.32;102187.91;4754592;30;20043;-76
2022/07/15 02:05:08;;;;;;;9.90;3.13;;;;;;;13.43;72.98;102188.00;4754055;30;20089;-76
2022/07/15 02:07:34;;;;;;;9.07;2.72;;;;;;;13.38;71.91;102189.78;4736523;30;20044;-77
2022/07/15 02:10:00;;;;;;;8.63;3.00;;;;;;;13.34;72.95;102197.81;4734418;30;20130;-86
2022/07/15 02:12:25;;;;;;;10.93;3.55;;;;;;;13.30;72.75;102196.13;4754922;30;20035;-87
2022/07/15 02:14:54;;;;;;;18.52;2.95;;;;;;;13.28;72.64;102197.91;4745570;30;20068;-86
2022/07/15 02:17:22;;;;;;;12.75;3.17;;;;;;;13.27;73.50;102195.25;4738769;30;20032;-86
2022/07/15 02:19:48;;;;;;;13.68;3.15;;;;;;;13.26;72.71;102197.00;4754734;30;20591;-87
2022/07/15 02:22:15;;;;;;;8.80;3.22;;;;;;;13.23;73.23;102193.47;4754921;30;20067;-86
2022/07/15 02:24:42;;;;;;;12.13;3.05;;;;;;;13.20;74.29;102197.06;4754670;30;20071;-86
2022/07/15 02:27:07;;;;;;;10.02;2.95;;;;;;;13.19;72.87;102191.78;4740155;30;20040;-87
2022/07/15 02:29:33;;;;;;;12.48;2.85;;;;;;;13.13;72.56;102182.97;4736720;30;20056;-87
2022/07/15 02:32:05;;;;;;;13.20;3.25;;;;;;;13.09;73.44;102188.34;4733074;30;20039;-90
2022/07/15 02:34:35;;;;;;;8.30;2.90;;;;;;;13.00;74.97;102183.09;4742960;30;20040;-90
2022/07/15 02:37:02;;;;;;;12.77;2.85;;;;;;;12.96;74.69;102190.25;4741181;30;20028;-89
2022/07/15 02:39:29;;;;;;;9.50;2.60;;;;;;;12.87;72.88;102177.91;4726649;30;20044;-90
2022/07/15 02:41:56;;;;;;;11.95;3.33;;;;;;;12.83;73.38;102188.59;4726207;30;20031;-89
2022/07/15 02:44:24;;;;;;;13.63;2.90;;;;;;;12.78;74.49;102185.97;4728822;30;20040;-90
2022/07/15 02:46:50;;;;;;;13.80;2.70;;;;;;;12.78;74.01;102191.28;4726571;30;20044;-90
2022/07/15 02:49:22;;;;;;;7.30;2.63;;;;;;;12.70;73.87;102191.34;4741526;30;20040;-89
2022/07/15 02:51:49;;;;;;;10.82;2.70;;;;;;;12.69;73.43;102184.28;4741985;30;20051;-91
2022/07/15 02:54:16;;;;;;;9.25;2.90;;;;;;;12.67;74.23;102185.19;4741202;30;20031;-89
2022/07/15 02:56:42;;;;;;;13.65;3.15;;;;;;;12.65;75.03;102203.81;4741283;30;20035;-89
2022/07/15 02:59:07;;;;;;;11.95;3.05;;;;;;;12.63;75.46;102199.41;4740596;30;20027;-88
2022/07/15 03:01:34;;;;;;;7.82;2.70;;;;;;;12.65;74.58;102213.56;4740612;30;20032;-90
2022/07/15 03:04:00;;;;;;;7.43;3.05;;;;;;;12.60;76.24;102208.28;4755370;30;20443;-88
2022/07/15 03:06:26;;;;;;;12.07;3.03;;;;;;;12.58;76.09;102215.38;4724578;30;20093;-90
2022/07/15 03:08:53;;;;;;;6.78;2.60;;;;;;;12.59;76.33;102224.25;4712041;30;20089;-91
2022/07/15 03:11:20;;;;;;;9.05;3.13;;;;;;;12.56;76.30;102217.19;4731823;30;20448;-89
2022/07/15 03:13:47;;;;;;;9.38;3.00;;;;;;;12.55;75.81;102223.38;4768158;30;20069;-90
2022/07/15 03:16:13;;;;;;;11.05;3.47;;;;;;;12.51;76.53;102221.63;4747566;30;20035;-89
2022/07/15 03:18:41;;;;;;;14.23;3.90;;;;;;;12.49;76.71;102226.09;4740915;30;20056;-90
2022/07/15 03:21:08;;;;;;;10.55;3.20;;;;;;;12.48;77.56;102229.63;4725730;30;20043;-89
2022/07/15 03:23:33;;;;;;;9.55;3.17;;;;;;;12.53;76.22;102237.56;4739975;30;20071;-89
2022/07/15 03:25:59;;;;;;;9.55;2.95;;;;;;;12.55;75.90;102236.66;4708365;30;20581;-89
2022/07/15 03:28:26;;;;;;;7.18;2.83;;;;;;;12.52;77.57;102235.81;4720521;30;20042;-88
2022/07/15 03:30:51;;;;;;;18.35;3.63;;;;;;;12.51;76.19;102234.91;4739692;30;20138;-88
2022/07/15 03:33:17;;;;;;;12.23;3.65;;;;;;;12.51;77.09;102240.22;4754093;30;20086;-89
2022/07/15 03:35:44;;;;;;;12.88;3.10;;;;;;;12.52;77.53;102241.16;4738113;30;20036;-89
2022/07/15 03:38:10;;;;;;;12.32;3.10;;;;;;;12.51;77.15;102242.88;4722324;30;20477;-88
2022/07/15 03:40:36;;;;;;;8.57;3.58;;;;;;;12.48;76.40;102243.78;4751340;30;20085;-88
2022/07/15 03:43:02;;;;;;;11.85;3.10;;;;;;;12.48;76.69;102241.13;4739009;30;20035;-89
2022/07/15 03:45:30;;;;;;;11.73;3.42;;;;;;;12.43;77.92;102248.25;4725419;30;20067;-89
2022/07/15 03:47:56;;;;;;;8.85;3.17;;;;;;;12.39;78.48;102249.19;4725481;30;20043;-90
2022/07/15 03:50:22;;;;;;;9.15;3.35;;;;;;;12.39;78.27;102246.53;4739682;30;20746;-89
2022/07/15 03:52:48;;;;;;;10.35;3.33;;;;;;;12.38;78.60;102250.06;4738692;30;20090;-89
2022/07/15 03:55:14;;;;;;;10.13;3.25;;;;;;;12.37;78.12;102252.75;4739992;30;20419;-90
2022/07/15 03:57:39;;;;;;;7.85;2.97;;;;;;;12.39;77.43;102262.47;4710435;30;20039;-90
2022/07/15 04:00:07;;;;;;;8.75;3.20;;;;;;;12.42;78.62;102262.44;4753979;30;20066;-88
2022/07/15 04:02:42;;;;;;;8.10;3.13;;;;;;;12.47;76.70;102259.78;4738541;30;20143;-89
2022/07/15 04:05:08;;;;;;;16.35;3.88;;;;;;;12.51;77.76;102264.16;4739163;30;20189;-89
2022/07/15 04:07:33;;;;;;;9.65;3.20;;;;;;;12.53;77.76;102262.38;4739149;30;20044;-89
2022/07/15 04:09:59;;;;;;;8.48;3.10;;;;;;;12.58;77.37;102268.53;4722335;30;20630;-89
2022/07/15 04:12:25;;;;;;;10.95;3.25;;;;;;;12.59;78.75;102266.78;4714253;30;20052;-89
2022/07/15 04:14:52;;;;;;;9.68;3.05;;;;;;;12.62;77.63;102270.28;4737186;30;20059;-89
2022/07/15 04:17:17;;;;;;;10.57;3.17;;;;;;;12.63;78.29;102263.19;4724964;30;20403;-88
2022/07/15 04:19:43;;;;;;;9.23;3.40;;;;;;;12.68;77.98;102264.94;4753417;30;20052;-89
2022/07/15 04:22:08;;;;;;;11.73;4.00;;;;;;;12.73;77.87;102266.66;4739520;30;20644;-90
2022/07/15 04:24:39;;;;;;;7.80;3.57;;;;;;;12.74;77.40;102268.44;4740063;30;20043;-89
2022/07/15 04:27:09;;;;;;;12.65;3.13;;;;;;;12.79;78.70;102269.28;4739766;30;20682;-89
2022/07/15 04:29:35;;;;;;;10.68;3.35;;;;;;;12.82;78.57;102262.16;4739459;30;20051;-88
2022/07/15 04:32:03;;;;;;;9.77;3.40;;;;;;;12.84;78.34;102257.69;4721811;30;20032;-88
2022/07/15 04:34:34;;;;;;;12.77;3.33;;;;;;;12.86;77.90;102263.03;4746525;30;20531;-89
2022/07/15 04:37:00;;;;;;;8.93;2.88;;;;;;;12.90;78.02;102262.94;4739114;30;20051;-89
2022/07/15 04:39:28;;;;;;;9.07;3.20;;;;;;;12.93;78.08;102267.34;4753632;30;20769;-89
2022/07/15 04:41:56;;;;;;;15.07;3.00;;;;;;;12.95;77.44;102267.34;4742710;30;20031;-88
2022/07/15 04:44:22;;;;;;;10.23;3.20;;;;;;;13.00;78.37;102273.50;4736083;30;20473;-89
2022/07/15 04:46:48;;;;;;;8.38;3.15;;;;;;;13.03;78.40;102282.38;4721609;30;20046;-89
2022/07/15 04:52:12;;;;;;;12.35;3.13;;;;;;;13.16;77.99;102279.59;4741834;30;20408;-84
2022/07/15 04:54:41;;;;;;;10.40;3.42;;;;;;;13.18;78.76;102273.34;4743054;30;20514;-85
2022/07/15 04:57:08;;;;;;;7.90;2.78;;;;;;;13.22;78.10;102277.72;4757059;30;20042;-85
2022/07/15 04:59:34;;;;;;;10.88;3.65;;;;;;;13.23;77.98;102271.53;4756844;30;20439;-84
2022/07/15 05:02:01;;;;;;;8.18;3.05;;;;;;;13.27;77.92;102267.06;4742078;30;20039;-85
2022/07/15 05:04:37;;;;;;;11.65;3.05;;;;;;;13.31;78.52;102267.03;4743333;30;20378;-85
2022/07/15 05:07:03;;;;;;;11.70;3.38;;;;;;;13.41;78.79;102270.47;4727743;30;20043;-84
2022/07/15 05:09:31;;;;;;;12.02;2.80;;;;;;;13.49;77.86;102267.72;4756596;30;20050;-85
2022/07/15 05:11:58;;;;;;;11.32;3.15;;;;;;;13.59;77.86;102276.50;4741821;30;20036;-85
2022/07/15 05:14:24;;;;;;;11.93;3.50;;;;;;;13.66;77.64;102273.75;4752795;30;20055;-85
2022/07/15 05:16:53;;;;;;;9.52;3.33;;;;;;;13.76;76.83;102285.16;4741788;30;20516;-84
2022/07/15 05:19:20;;;;;;;9.85;3.05;;;;;;;13.80;77.01;102280.66;4746890;30;20059;-85
2022/07/15 05:21:46;;;;;;;11.05;2.90;;;;;;;13.89;77.81;102280.56;4742726;30;20039;-85
2022/07/15 05:24:11;;;;;;;9.38;3.10;;;;;;;14.00;76.45;102269.78;4738903;30;20071;-85
2022/07/15 05:26:37;;;;;;;9.20;3.28;;;;;;;14.03;76.71;102275.06;4726320;30;20075;-85
2022/07/15 05:29:04;;;;;;;10.48;3.03;;;;;;;14.11;76.22;102274.06;4749838;30;20038;-85
2022/07/15 05:31:30;;;;;;;10.50;3.00;;;;;;;14.21;75.92;102280.13;4748434;30;20150;-85
2022/07/15 05:33:58;;;;;;;14.10;3.17;;;;;;;14.27;76.12;102280.06;4741758;30;20090;-84
2022/07/15 05:36:26;;;;;;;11.38;3.38;;;;;;;14.34;75.43;102271.09;4723894;30;20542;-85
2022/07/15 05:38:55;;;;;;;11.15;2.97;;;;;;;14.38;74.65;102271.91;4749061;30;20381;-84
2022/07/15 05:41:20;;;;;;;8.30;2.67;;;;;;;14.38;75.03;102271.91;4746040;30;20036;-87
2022/07/15 05:43:46;;;;;;;13.50;2.78;;;;;;;14.38;74.64;102272.78;4764967;30;20423;-85
2022/07/15 05:46:12;;;;;;;9.45;2.45;;;;;;;14.46;75.19;102271.78;4736553;30;20040;-85
2022/07/15 05:48:50;;;;;;;12.75;2.97;;;;;;;14.48;75.29;102275.31;4732954;30;20414;-85
2022/07/15 05:51:17;;;;;;;12.90;3.05;;;;;;;14.49;74.20;102269.06;4723790;30;20084;-85
2022/07/15 05:53:43;;;;;;;9.18;2.63;;;;;;;14.53;74.01;102271.69;4719324;30;20064;-85
2022/07/15 05:56:09;;;;;;;8.95;2.63;;;;;;;14.63;73.21;102264.44;4734737;30;20567;-85
2022/07/15 05:58:35;;;;;;;9.52;2.58;;;;;;;14.69;73.02;102269.69;4741812;30;20464;-85
2022/07/15 06:01:01;;;;;;;7.45;2.35;;;;;;;14.74;72.97;102259.81;4738148;30;20476;-85
2022/07/15 06:03:33;;;;;;;11.48;2.35;;;;;;;14.83;71.46;102262.31;4734588;30;20075;-84
2022/07/15 06:05:59;;;;;;;9.35;2.33;;;;;;;14.91;71.34;102263.97;4749635;30;20059;-85
2022/07/15 06:08:25;;;;;;;11.25;2.38;;;;;;;14.97;70.94;102255.88;4735893;30;20043;-86
2022/07/15 06:10:53;;;;;;;11.05;2.35;;;;;;;15.08;70.62;102267.22;4734116;30;20036;-86
2022/07/15 06:13:22;;;;;;;7.35;1.90;;;;;;;15.19;70.02;102267.91;4736233;30;20043;-85
2022/07/15 06:15:48;;;;;;;12.25;2.33;;;;;;;15.27;70.03;102267.78;4727410;30;20123;-86
2022/07/15 06:18:21;;;;;;;6.22;2.08;;;;;;;15.30;69.99;102264.16;4747426;30;20039;-85
2022/07/15 06:20:49;;;;;;;8.55;2.22;;;;;;;15.38;70.53;102262.22;4738417;30;20060;-85
2022/07/15 06:23:15;;;;;;;13.82;2.13;;;;;;;15.49;69.27;102269.13;4725986;30;20067;-85
2022/07/15 06:25:42;;;;;;;12.63;2.72;;;;;;;15.58;69.18;102261.81;4752308;30;20489;-87
2022/07/15 06:28:09;;;;;;;9.50;2.78;;;;;;;15.64;68.42;102267.94;4750952;30;20035;-86
2022/07/15 06:30:34;;;;;;;11.15;1.92;;;;;;;15.70;68.42;102272.28;4723390;30;20090;-86
2022/07/15 06:33:00;;;;;;;6.90;2.33;;;;;;;15.80;68.02;102264.97;4765993;30;20153;-87
2022/07/15 06:35:30;;;;;;;10.30;2.25;;;;;;;15.90;67.90;102261.22;4740103;30;20172;-82
2022/07/15 06:37:55;;;;;;;18.58;2.47;;;;;;;16.02;67.96;102268.97;4733602;30;20138;-87
2022/07/15 06:40:22;;;;;;;9.25;2.38;;;;;;;16.06;67.80;102265.31;4726053;30;20659;-87
2022/07/15 06:42:47;;;;;;;10.27;2.47;;;;;;;16.08;66.35;102263.47;4738546;30;20166;-86
2022/07/15 06:45:21;;;;;;;12.02;2.10;;;;;;;16.14;66.71;102262.44;4735250;30;20425;-87
2022/07/15 06:47:48;;;;;;;7.65;2.08;;;;;;;16.22;66.95;102270.28;4737358;30;20387;-87
2022/07/15 06:50:14;;;;;;;13.43;2.17;;;;;;;16.33;66.13;102268.28;4732912;30;20036;-87
2022/07/15 06:52:43;;;;;;;10.00;2.13;;;;;;;16.33;63.74;102265.59;4755007;30;20036;-86
2022/07/15 06:55:10;;;;;;;9.75;2.25;;;;;;;16.29;62.76;102262.09;4737642;30;20466;-86
2022/07/15 06:57:35;;;;;;;9.15;1.75;;;;;;;16.38;63.90;102271.72;4752636;30;20409;-86
2022/07/15 07:00:02;;;;;;;10.15;2.17;;;;;;;16.48;63.48;102270.59;4733683;30;20051;-86
2022/07/15 07:02:27;;;;;;;8.00;1.42;;;;;;;16.54;61.43;102269.53;4754748;30;20024;-87
2022/07/15 07:04:56;;;;;;;7.72;1.50;;;;;;;16.64;61.04;102270.19;4735842;30;20039;-87
2022/07/15 07:07:22;;;;;;;5.82;1.67;;;;;;;16.79;61.24;102272.56;4737048;30;20091;-86
2022/07/15 07:09:47;;;;;;;5.18;1.40;;;;;;;16.92;60.99;102270.44;4725211;30;20043;-87
2022/07/15 07:12:13;;;;;;;9.25;1.80;;;;;;;17.03;60.26;102271.03;4739624;30;20119;-87
2022/07/15 07:14:39;;;;;;;6.03;1.35;;;;;;;17.11;59.98;102277.09;4741430;30;20048;-86
2022/07/15 07:17:04;;;;;;;5.80;1.30;;;;;;;17.20;58.54;102281.28;4751088;30;20389;-87
2022/07/15 07:19:30;;;;;;;6.45;2.08;;;;;;;17.29;57.59;102285.53;4723363;30;20076;-86
2022/07/15 07:21:56;;;;;;;11.65;1.55;;;;;;;17.35;57.63;102286.22;4736943;30;20036;-86
2022/07/15 07:24:22;;;;;;;9.90;1.35;;;;;;;17.48;57.93;102286.81;4734537;30;20410;-87
2022/07/15 07:26:48;;;;;;;13.70;1.60;;;;;;;17.61;57.37;102276.63;4773171;30;20124;-91
2022/07/15 07:29:16;;;;;;;7.63;1.38;;;;;;;17.70;55.96;102275.47;4733944;30;20046;-88
2022/07/15 07:31:41;;;;;;;6.75;1.48;;;;;;;17.88;56.92;102280.34;4748780;30;20036;-88
2022/07/15 07:34:07;;;;;;;6.68;1.35;;;;;;;17.96;55.60;102275.63;4754751;30;20045;-87
2022/07/15 07:36:35;;;;;;;8.55;1.90;;;;;;;18.08;55.20;102279.72;4759349;30;20038;-85
2022/07/15 07:39:00;;;;;;;8.63;1.77;;;;;;;18.22;54.95;102285.56;4757370;30;20046;-89
2022/07/15 07:41:26;;;;;;;5.60;1.40;;;;;;;18.37;54.84;102289.56;4735194;30;20040;-86
2022/07/15 07:43:55;;;;;;;8.70;1.77;;;;;;;18.41;54.05;102285.84;4754793;30;20111;-90
2022/07/15 07:46:55;;;;;;;6.07;1.50;;;;;;;18.51;54.92;102285.56;4789424;30;20039;-91
2022/07/15 07:49:27;;;;;;;8.15;1.77;;;;;;;18.51;53.00;102296.28;4724576;30;20041;-87
2022/07/15 07:52:06;;;;;;;12.57;1.85;;;;;;;18.36;53.03;102284.25;4756658;30;20181;-94
2022/07/15 07:54:45;;;;;;;5.65;1.55;;;;;;;18.47;53.89;102282.97;4744743;30;20055;-90
2022/07/15 07:57:18;;;;;;;8.93;1.80;;;;;;;18.62;54.40;102292.34;4756914;30;20378;-93
2022/07/15 07:59:47;;;;;;;8.95;2.00;;;;;;;18.73;53.80;102288.41;4745608;30;20064;-92
2022/07/15 08:02:13;;;;;;;6.38;1.63;;;;;;;18.82;53.85;102288.16;4726223;30;20116;-93
2022/07/15 08:04:43;;;;;;;5.82;1.42;;;;;;;18.90;51.85;102286.94;4726182;30;20050;-93
2022/07/15 08:07:15;;;;;;;10.20;1.60;;;;;;;18.90;51.69;102276.22;4734400;30;20440;-93
2022/07/15 08:09:44;;;;;;;5.57;1.85;;;;;;;18.98;51.45;102283.13;4740247;30;20036;-91
2022/07/15 08:12:13;;;;;;;7.78;1.90;;;;;;;19.05;51.61;102277.50;4729039;30;20036;-92
2022/07/15 08:14:54;;;;;;;7.32;1.52;;;;;;;19.03;51.01;102283.84;4756398;30;20412;-93
2022/07/15 08:18:03;;;;;;;7.35;1.20;;;;;;;19.13;51.07;102287.97;4746192;30;20449;-90
2022/07/15 08:26:10;;;;;;;9.63;1.60;;;;;;;19.28;51.08;102289.25;4787118;30;20112;-93
2022/07/15 08:29:08;;;;;;;6.43;1.50;;;;;;;19.22;48.29;102279.59;4753572;30;20044;-87
2022/07/15 08:31:36;;;;;;;5.88;1.63;;;;;;;19.30;48.02;102292.75;4740907;30;20757;-90
2022/07/15 08:34:09;;;;;;;7.03;1.73;;;;;;;19.37;48.79;102299.66;4739901;30;20055;-90
2022/07/15 08:36:37;;;;;;;9.68;1.42;;;;;;;19.47;48.36;102290.34;4723457;30;20055;-89
2022/07/15 08:39:03;;;;;;;11.25;1.58;;;;;;;19.62;47.73;102286.22;4726517;30;20049;-88
2022/07/15 08:42:00;;;;;;;5.80;1.40;;;;;;;19.77;47.53;102280.28;4719435;30;20127;-90
2022/07/15 08:44:26;;;;;;;6.13;1.20;;;;;;;19.93;47.66;102282.41;4748812;30;20044;-90
2022/07/15 08:47:00;;;;;;;4.40;1.20;;;;;;;20.05;46.61;102281.94;4744259;30;20047;-90
2022/07/15 08:49:34;;;;;;;6.93;1.73;;;;;;;20.22;48.14;102280.41;4744968;30;20168;-89
2022/07/15 08:52:03;;;;;;;9.63;2.00;;;;;;;20.30;46.75;102272.91;4744575;30;20052;-91
2022/07/15 08:54:29;;;;;;;4.93;1.38;;;;;;;20.31;45.46;102272.84;4745825;30;20079;-91
2022/07/15 08:56:55;;;;;;;6.60;1.35;;;;;;;20.26;45.69;102271.28;4760273;30;20047;-90
2022/07/15 08:59:21;;;;;;;6.55;1.73;;;;;;;20.12;43.66;102277.19;4750918;30;20134;-91
2022/07/15 09:01:48;;;;;;;3.15;1.08;;;;;;;19.98;44.25;102272.38;4754698;30;20065;-90
2022/07/15 09:04:15;;;;;;;4.65;1.30;;;;;;;20.07;44.32;102273.81;4739204;30;20559;-86
2022/07/15 09:06:44;;;;;;;3.97;1.10;;;;;;;20.06;44.33;102274.75;4721193;30;20119;-90
2022/07/15 09:09:32;;;;;;;7.63;1.33;;;;;;;20.15;44.41;102275.28;4732926;30;20203;-90
2022/07/15 09:12:02;;;;;;;11.18;1.48;;;;;;;20.27;45.38;102279.28;4738124;30;20105;-91
2022/07/15 09:14:30;;;;;;;5.07;1.92;;;;;;;20.29;46.23;102272.03;4752609;30;20182;-90
2022/07/15 09:17:11;;;;;;;5.75;1.50;;;;;;;20.41;45.15;102266.16;4732687;30;20289;-91
2022/07/15 09:19:55;;;;;;;4.55;1.60;;;;;;;20.54;45.45;102271.03;4736088;30;20051;-91
2022/07/15 09:22:21;;;;;;;7.88;1.60;;;;;;;20.53;44.43;102266.59;4752818;30;20121;-90
2022/07/15 09:24:50;;;;;;;8.25;2.03;;;;;;;20.65;44.30;102263.44;4717391;30;20752;-92
2022/07/15 09:27:45;;;;;;;7.95;1.65;;;;;;;20.71;43.87;102278.44;4755555;30;20076;-91
2022/07/15 09:33:34;;;;;;;8.82;1.65;;;;;;;20.48;44.76;102272.16;4755682;30;20048;-90
2022/07/15 09:36:24;;;;;;;7.32;1.58;;;;;;;20.87;45.18;102266.09;4755669;30;20362;-89
2022/07/15 09:39:00;;;;;;;9.23;1.50;;;;;;;21.28;44.15;102258.03;4739497;30;20635;-90
2022/07/15 09:41:33;;;;;;;5.97;1.10;;;;;;;21.51;43.07;102269.63;4755600;30;20043;-90
2022/07/15 09:44:03;;;;;;;6.88;1.35;;;;;;;21.74;42.28;102264.06;4739974;30;20698;-91
2022/07/15 09:46:43;;;;;;;7.78;1.67;;;;;;;22.00;42.01;102268.22;4755970;30;20051;-90
2022/07/15 09:49:14;;;;;;;6.10;1.88;;;;;;;22.08;40.86;102266.06;4740543;30;20051;-90
2022/07/15 09:51:50;;;;;;;;;;;;;;;22.01;42.60;102266.44;4738403;30;20136;-90
2022/07/15 09:54:17;;;;;;;6.43;1.70;;;;;;;21.46;42.07;102253.66;4753623;30;19925;-90
2022/07/15 09:56:44;;;;;;;6.07;1.50;;;;;;;21.50;42.70;102257.97;4755756;30;20089;-91
2022/07/15 09:59:10;;;;;;;5.90;1.20;;;;;;;21.62;40.95;102261.94;4740874;30;20043;-91
2022/07/15 10:01:36;;;;;;;5.53;1.48;;;;;;;21.57;41.00;102259.47;4741225;30;20052;-89
2022/07/15 10:04:05;;;;;;;3.47;1.13;;;;;;;21.88;40.83;102258.03;4756218;30;20484;-90
2022/07/15 10:06:35;;;;;;;4.45;1.35;;;;;;;22.15;41.19;102263.06;4741371;30;20054;-90
2022/07/15 10:09:02;;;;;;;6.00;1.58;;;;;;;22.29;40.78;102260.59;4753068;30;20117;-91
2022/07/15 10:11:29;;;;;;;4.97;1.17;;;;;;;22.60;40.10;102249.19;4752593;30;20040;-90
2022/07/15 10:14:20;;;;;;;3.42;1.20;;;;;;;22.93;39.76;102251.09;4756217;30;20051;-91
2022/07/15 10:17:15;;;;;;;7.57;1.58;;;;;;;23.06;38.71;102249.53;4740876;30;20407;-91
2022/07/15 10:20:06;;;;;;;6.18;1.45;;;;;;;23.21;38.32;102250.56;4750048;30;20066;-91
2022/07/15 10:22:50;;;;;;;6.97;1.40;;;;;;;22.94;38.78;102245.59;4740820;30;20039;-90
2022/07/15 10:26:06;;;;;;;6.53;1.65;;;;;;;22.65;39.17;102238.13;4752617;30;20146;-91
2022/07/15 10:28:53;;;;;;;4.88;0.93;;;;;;;22.43;39.68;102241.91;4734891;30;20146;-91
2022/07/15 10:31:22;;;;;;;8.90;1.30;;;;;;;22.67;38.10;102242.50;4738933;30;20100;-90
2022/07/15 10:34:03;;;;;;;6.65;1.13;;;;;;;22.89;37.64;102236.00;4739485;30;20029;-90
2022/07/15 10:36:53;;;;;;;3.85;1.10;;;;;;;22.95;35.81;102238.41;4748698;30;20040;-91
2022/07/15 10:39:21;;;;;;;5.77;1.13;;;;;;;23.08;34.33;102246.78;4735350;30;20140;-90
2022/07/15 10:41:58;;;;;;;4.57;1.20;;;;;;;23.17;34.98;102224.69;4755639;30;20042;-91
2022/07/15 10:44:33;;;;;;;3.35;0.90;;;;;;;23.41;35.87;102225.16;4740125;30;20039;-90
2022/07/15 10:47:14;;;;;;;6.35;1.58;;;;;;;23.66;36.71;102223.84;4744790;30;20447;-90
2022/07/15 10:49:40;;;;;;;;;;;;;;;23.86;37.46;102220.06;4730764;30;20040;-90
2022/07/15 10:52:14;;;;;;;4.70;1.23;;;;;;;23.66;35.75;102221.13;4739749;30;19917;-90
2022/07/15 10:54:43;;;;;;;8.55;1.20;;;;;;;23.75;36.09;102218.81;4754243;30;20046;-90
2022/07/15 10:57:09;;;;;;;5.93;1.38;;;;;;;23.65;36.30;102214.00;4769771;30;20105;-90
2022/07/15 10:59:37;;;;;;;9.50;1.30;;;;;;;24.02;36.41;102207.41;4741770;30;20044;-90
2022/07/15 11:02:03;;;;;;;3.42;0.98;;;;;;;24.29;33.80;102210.38;4740110;30;20112;-90
2022/07/15 11:04:31;;;;;;;5.57;1.27;;;;;;;24.42;33.47;102205.09;4739972;30;20505;-91
2022/07/15 11:07:06;;;;;;;3.00;0.82;;;;;;;24.56;34.62;102209.75;4740214;30;20039;-91
2022/07/15 11:09:50;;;;;;;5.65;0.70;;;;;;;24.84;35.22;102195.41;4754921;30;20047;-91
2022/07/15 11:12:29;;;;;;;3.28;1.20;;;;;;;24.98;35.07;102202.72;4754933;30;20087;-90
2022/07/15 11:14:58;;;;;;;5.80;1.20;;;;;;;24.67;33.86;102202.72;4752507;30;20040;-90
2022/07/15 11:17:27;;;;;;;4.30;1.10;;;;;;;24.64;34.02;102208.31;4739682;30;20062;-91
2022/07/15 11:19:55;;;;;;;4.47;1.10;;;;;;;24.66;33.96;102200.13;4754299;30;20044;-91
2022/07/15 11:22:25;;;;;;;3.92;1.27;;;;;;;25.10;34.99;102199.25;4740027;30;20093;-89
2022/07/15 11:24:52;;;;;;;5.50;1.13;;;;;;;25.21;32.54;102190.47;4754186;30;20044;-91
2022/07/15 11:27:20;;;;;;;8.80;1.20;;;;;;;25.56;33.77;102190.09;4739772;30;20119;-91
2022/07/15 11:29:49;;;;;;;5.50;1.27;;;;;;;25.74;33.64;102191.59;4739767;30;20042;-90
2022/07/15 11:32:16;;;;;;;3.20;1.08;;;;;;;25.48;32.39;102185.16;4753296;30;20044;-91
2022/07/15 11:34:47;;;;;;;3.85;1.00;;;;;;;25.36;32.52;102175.09;4739243;30;20031;-91
2022/07/15 11:37:18;;;;;;;2.30;0.88;;;;;;;25.25;33.29;102178.47;4739049;30;20109;-90
2022/07/15 11:39:49;;;;;;;4.50;0.98;;;;;;;25.47;32.40;102175.25;4753696;30;20101;-91
2022/07/15 11:45:05;;;;;;;4.63;1.02;;;;;;;25.16;33.07;102169.03;4753916;30;20055;-90
2022/07/15 11:47:31;;;;;;;3.42;1.10;;;;;;;25.24;32.97;102169.44;4753892;30;20412;-91
2022/07/15 11:50:02;;;;;;;4.88;1.40;;;;;;;25.30;31.55;102176.34;4739243;30;20039;-91